Terminal Aerodrome Forecast
Issued by NWS

Home | Current Version | Previous Version | Text Only | Print | Product List | Glossary Off
Versions: 1 2 3 4 5 6 7 8 9 10 11 12 13 14 15 16 17 18 19 20 21 22 23 24 25 26 27 28 29 30 31

367
FTUS43 KLOT 162040 AAA
TAFMDW
TAF AMD
KMDW 162040Z 1621/1724 30012KT P6SM FEW040
     FM170100 25005KT P6SM SKC
     FM170500 20006KT P6SM FEW180 BKN250
     FM171600 20012KT P6SM BKN100
     FM172100 21011KT 5SM -SHSN SCT040 OVC060=

USA.gov is the U.S. government's official web portal to all federal, state and local government web resources and services.